Time;durP1;ratioP1;P1;durP2;ratioP2;P2;SDS_P1;SDS_P2;PMS_P1;PMS_P2;Temp;Humidity;BMP_temperature;BMP_pressure;BME280_temperature;BME280_humidity;BME280_pressure;Samples;Min_cycle;Max_cycle;Signal;HPM_P1;HPM_P2
2021/09/13 00:00:35;;;;;;;15.60;14.27;;;17.40;99.90;;;;;;5050913;28;20448;-62
2021/09/13 00:03:02;;;;;;;13.27;12.40;;;17.40;99.90;;;;;;5050764;28;20832;-60
2021/09/13 00:05:29;;;;;;;14.50;13.50;;;17.30;99.90;;;;;;5037980;28;20457;-61
2021/09/13 00:07:56;;;;;;;13.50;12.50;;;17.30;99.90;;;;;;5031143;28;20449;-62
2021/09/13 00:10:23;;;;;;;14.67;13.67;;;17.20;99.90;;;;;;5031128;28;20453;-60
2021/09/13 00:12:50;;;;;;;14.40;13.20;;;17.10;99.90;;;;;;5030584;28;20480;-59
2021/09/13 00:15:17;;;;;;;13.20;12.33;;;17.20;99.90;;;;;;5042137;28;20818;-61
2021/09/13 00:17:45;;;;;;;12.10;11.37;;;17.10;99.90;;;;;;5051087;28;20513;-60
2021/09/13 00:20:12;;;;;;;12.70;11.70;;;17.20;99.90;;;;;;5051343;28;20444;-60
2021/09/13 00:22:38;;;;;;;12.17;11.30;;;17.20;99.90;;;;;;5054618;28;20836;-60
2021/09/13 00:25:06;;;;;;;11.97;11.27;;;17.20;99.90;;;;;;5045318;28;20449;-60
2021/09/13 00:27:33;;;;;;;12.27;11.50;;;17.20;99.90;;;;;;5034930;28;20448;-62
2021/09/13 00:29:59;;;;;;;13.90;12.90;;;17.20;99.90;;;;;;5034958;28;20783;-62
2021/09/13 00:32:26;;;;;;;12.80;11.77;;;17.20;99.90;;;;;;5034603;28;20460;-64
2021/09/13 00:34:54;;;;;;;12.70;11.70;;;17.10;99.90;;;;;;5042125;28;20523;-63
2021/09/13 00:37:21;;;;;;;13.13;11.97;;;17.00;99.90;;;;;;5054682;28;20432;-62
2021/09/13 00:39:48;;;;;;;12.90;11.90;;;16.90;99.90;;;;;;5054727;28;20459;-62
2021/09/13 00:42:14;;;;;;;12.53;11.63;;;16.90;99.90;;;;;;5039610;28;20527;-61
2021/09/13 00:44:41;;;;;;;13.33;12.43;;;16.90;99.90;;;;;;5034600;28;20464;-62
2021/09/13 00:47:08;;;;;;;14.53;13.30;;;16.90;99.90;;;;;;5034660;28;20931;-60
2021/09/13 00:49:34;;;;;;;15.20;13.80;;;17.00;99.90;;;;;;5034603;28;20532;-62
2021/09/13 00:52:03;;;;;;;14.20;13.23;;;17.00;99.90;;;;;;5046168;28;20482;-64
2021/09/13 00:54:29;;;;;;;14.77;13.77;;;17.00;99.90;;;;;;5054318;28;20838;-63
2021/09/13 00:56:56;;;;;;;14.00;12.70;;;16.90;99.90;;;;;;5054550;28;20447;-61
2021/09/13 00:59:23;;;;;;;14.80;13.77;;;16.90;99.90;;;;;;5054266;28;20444;-60
2021/09/13 01:01:50;;;;;;;13.17;12.27;;;16.80;99.90;;;;;;5052164;28;20957;-62
2021/09/13 01:04:17;;;;;;;14.97;13.87;;;16.70;99.90;;;;;;5054072;28;20467;-58
2021/09/13 01:06:44;;;;;;;14.83;13.83;;;16.60;99.90;;;;;;5054135;28;20444;-62
2021/09/13 01:09:12;;;;;;;12.73;11.73;;;16.60;99.90;;;;;;5053972;28;20444;-59
2021/09/13 01:11:38;;;;;;;14.53;13.40;;;16.60;99.90;;;;;;5045133;28;20484;-63
2021/09/13 01:14:05;;;;;;;15.30;13.70;;;16.50;99.90;;;;;;5033992;28;20841;-59
2021/09/13 01:16:32;;;;;;;14.27;13.33;;;16.50;99.90;;;;;;5034010;28;20762;-62
2021/09/13 01:18:58;;;;;;;13.20;12.20;;;16.50;99.90;;;;;;5034057;28;20536;-62
2021/09/13 01:21:27;;;;;;;14.80;13.47;;;16.40;99.90;;;;;;5039984;28;20444;-61
2021/09/13 01:23:55;;;;;;;14.50;13.50;;;16.40;99.90;;;;;;5053770;28;20980;-62
2021/09/13 01:26:22;;;;;;;14.27;13.27;;;16.40;99.90;;;;;;5053793;28;20452;-62
2021/09/13 01:28:49;;;;;;;15.10;13.73;;;16.30;99.90;;;;;;5053779;28;20467;-63
2021/09/13 01:31:15;;;;;;;13.50;12.40;;;16.20;99.90;;;;;;5048331;28;20939;-59
2021/09/13 01:33:42;;;;;;;15.03;13.93;;;16.20;99.90;;;;;;5034008;28;20844;-62
2021/09/13 01:36:09;;;;;;;15.57;14.00;;;16.10;99.90;;;;;;5033835;28;20452;-58
2021/09/13 01:38:36;;;;;;;17.30;15.60;;;16.10;99.90;;;;;;5033687;28;20448;-60
2021/09/13 01:41:04;;;;;;;16.47;15.27;;;16.00;99.90;;;;;;5036013;28;20445;-61
2021/09/13 01:43:30;;;;;;;15.50;14.40;;;16.00;99.90;;;;;;5053388;28;20464;-62
2021/09/13 01:45:57;;;;;;;17.23;15.67;;;15.90;99.90;;;;;;5053532;28;20455;-64
2021/09/13 01:48:24;;;;;;;15.33;14.03;;;15.90;99.90;;;;;;5053526;28;20443;-63
2021/09/13 01:50:51;;;;;;;16.17;14.90;;;15.80;99.90;;;;;;5038369;28;20445;-64
2021/09/13 01:53:17;;;;;;;17.27;15.87;;;15.70;99.90;;;;;;5032918;28;20488;-63
2021/09/13 01:55:44;;;;;;;16.73;15.33;;;15.70;99.90;;;;;;5033408;28;20449;-64
2021/09/13 01:58:12;;;;;;;16.33;14.83;;;15.60;99.90;;;;;;5033244;28;20453;-63
2021/09/13 02:00:39;;;;;;;16.13;14.80;;;15.50;99.90;;;;;;5046062;28;20452;-63
2021/09/13 02:03:06;;;;;;;15.17;14.00;;;15.40;99.90;;;;;;5052859;28;20456;-61
2021/09/13 02:05:32;;;;;;;15.40;14.20;;;15.30;99.90;;;;;;5052935;28;20960;-63
2021/09/13 02:07:59;;;;;;;16.30;14.90;;;15.20;99.90;;;;;;5048159;28;20449;-64
2021/09/13 02:10:26;;;;;;;15.87;14.63;;;15.10;99.90;;;;;;5033063;28;20452;-61
2021/09/13 02:12:53;;;;;;;18.00;15.97;;;15.10;99.90;;;;;;5032462;28;20489;-61
2021/09/13 02:15:21;;;;;;;17.93;16.33;;;15.00;99.90;;;;;;5033010;28;20437;-63
2021/09/13 02:17:47;;;;;;;15.93;14.33;;;15.00;99.90;;;;;;5035622;28;20448;-62
2021/09/13 02:20:14;;;;;;;17.40;15.70;;;14.90;99.90;;;;;;5052769;28;20444;-60
2021/09/13 02:22:41;;;;;;;18.43;16.73;;;14.80;99.90;;;;;;5052492;28;20493;-59
2021/09/13 02:25:09;;;;;;;15.93;14.43;;;14.80;99.90;;;;;;5052665;28;20455;-63
2021/09/13 02:27:36;;;;;;;15.67;14.10;;;14.70;99.90;;;;;;5051474;28;20447;-62
2021/09/13 02:30:02;;;;;;;18.07;16.17;;;14.70;99.90;;;;;;5032912;28;20449;-63
2021/09/13 02:32:30;;;;;;;19.67;16.90;;;14.70;99.90;;;;;;5032293;28;20828;-63
2021/09/13 02:35:02;;;;;;;18.63;16.03;;;14.70;99.90;;;;;;5032591;28;20445;-62
2021/09/13 02:37:29;;;;;;;17.10;15.30;;;14.80;99.90;;;;;;5032597;28;20453;-63
2021/09/13 02:39:56;;;;;;;16.10;14.43;;;14.70;99.90;;;;;;5052092;28;20444;-62
2021/09/13 02:42:22;;;;;;;17.10;15.17;;;14.70;99.90;;;;;;5052056;28;20452;-59
2021/09/13 02:44:49;;;;;;;18.67;14.57;;;14.70;99.90;;;;;;5051301;28;20833;-63
2021/09/13 02:47:16;;;;;;;17.53;15.20;;;14.60;99.90;;;;;;5052188;28;20440;-61
2021/09/13 02:49:44;;;;;;;16.70;14.77;;;14.50;99.90;;;;;;5033984;28;20951;-63
2021/09/13 02:52:11;;;;;;;17.90;15.50;;;14.50;99.90;;;;;;5031990;28;20504;-63
2021/09/13 02:54:37;;;;;;;16.30;14.60;;;14.40;99.90;;;;;;5031989;28;20461;-61
2021/09/13 02:57:04;;;;;;;19.40;14.77;;;14.30;99.90;;;;;;5036225;28;20456;-62
2021/09/13 02:59:31;;;;;;;17.53;15.33;;;14.20;99.90;;;;;;5032040;28;20441;-62
2021/09/13 03:01:57;;;;;;;18.00;16.30;;;14.20;99.90;;;;;;5031847;28;20441;-62
2021/09/13 03:04:24;;;;;;;17.27;15.40;;;14.20;99.90;;;;;;5031991;28;20477;-60
2021/09/13 03:06:52;;;;;;;20.03;18.03;;;14.20;99.90;;;;;;5039339;28;20456;-59
2021/09/13 03:09:19;;;;;;;22.97;15.40;;;14.20;99.90;;;;;;5051746;28;20952;-59
2021/09/13 03:11:45;;;;;;;16.80;14.90;;;14.10;99.90;;;;;;5051532;28;20455;-60
2021/09/13 03:14:12;;;;;;;21.20;17.07;;;14.10;99.90;;;;;;5051505;28;20492;-60
2021/09/13 03:16:39;;;;;;;25.73;16.90;;;14.00;99.90;;;;;;5045738;28;20815;-59
2021/09/13 03:19:09;;;;;;;18.97;16.93;;;14.00;99.90;;;;;;5031761;28;20441;-62
2021/09/13 03:21:36;;;;;;;19.20;16.17;;;14.00;99.90;;;;;;5031544;28;20441;-61
2021/09/13 03:24:04;;;;;;;20.57;15.60;;;13.90;99.90;;;;;;5031476;28;20469;-62
2021/09/13 03:26:31;;;;;;;21.10;18.80;;;13.90;99.90;;;;;;5036391;28;20441;-60
2021/09/13 03:28:58;;;;;;;19.30;16.77;;;13.90;99.90;;;;;;5031585;28;20927;-59
2021/09/13 03:31:24;;;;;;;16.87;14.80;;;13.90;99.90;;;;;;5031457;28;20448;-62
2021/09/13 03:33:51;;;;;;;20.20;17.33;;;13.90;99.90;;;;;;5031366;28;20485;-62
2021/09/13 03:36:18;;;;;;;20.20;17.77;;;13.90;99.90;;;;;;5044275;28;20455;-60
2021/09/13 03:38:48;;;;;;;21.13;16.87;;;13.90;99.90;;;;;;5051357;28;20447;-62
2021/09/13 03:41:16;;;;;;;19.10;17.10;;;13.90;99.90;;;;;;5051090;28;20945;-59
2021/09/13 03:43:42;;;;;;;17.60;15.40;;;13.90;99.90;;;;;;5051226;28;20491;-62
2021/09/13 03:46:09;;;;;;;26.40;16.47;;;13.90;99.90;;;;;;5039598;28;20452;-61
2021/09/13 03:48:36;;;;;;;23.70;19.17;;;13.80;99.90;;;;;;5031475;28;20934;-61
2021/09/13 03:51:02;;;;;;;23.17;18.10;;;13.80;99.90;;;;;;5031174;28;20472;-59
2021/09/13 03:53:29;;;;;;;22.00;17.73;;;13.80;99.90;;;;;;5031171;28;20504;-63
2021/09/13 03:55:56;;;;;;;22.17;17.47;;;13.80;99.90;;;;;;5039792;28;20445;-59
2021/09/13 03:58:24;;;;;;;20.40;16.80;;;13.80;99.90;;;;;;5051272;28;20451;-60
2021/09/13 04:00:50;;;;;;;21.97;18.20;;;13.80;99.90;;;;;;5051191;28;20807;-59
2021/09/13 04:03:20;;;;;;;23.37;19.63;;;13.70;99.90;;;;;;5049226;28;20476;-59
2021/09/13 04:05:50;;;;;;;25.00;21.57;;;13.70;99.90;;;;;;5031218;28;20453;-59
2021/09/13 04:08:21;;;;;;;23.47;20.47;;;13.70;99.90;;;;;;5031188;28;20887;-57
2021/09/13 04:11:03;;;;;;;25.10;20.03;;;13.60;99.90;;;;;;5031208;28;20970;-59
2021/09/13 04:13:31;;;;;;;20.93;18.77;;;13.60;99.90;;;;;;5048013;28;20559;-62
2021/09/13 04:15:58;;;;;;;26.70;19.33;;;13.60;99.90;;;;;;5050787;28;20448;-63
2021/09/13 04:18:25;;;;;;;31.50;26.33;;;13.60;99.90;;;;;;5051111;28;20440;-59
2021/09/13 04:20:51;;;;;;;24.50;20.63;;;13.60;99.90;;;;;;5050897;28;20443;-60
2021/09/13 04:23:18;;;;;;;30.30;23.00;;;13.60;99.90;;;;;;5035523;28;20468;-62
2021/09/13 04:25:45;;;;;;;27.80;21.10;;;13.50;99.90;;;;;;5030875;28;20448;-63
2021/09/13 04:28:11;;;;;;;24.67;19.37;;;13.50;99.90;;;;;;5030936;28;20441;-61
2021/09/13 04:30:39;;;;;;;27.40;21.10;;;13.50;99.90;;;;;;5030728;28;20444;-59
2021/09/13 04:33:06;;;;;;;28.20;21.77;;;13.40;99.90;;;;;;5043432;28;20511;-58
2021/09/13 04:35:33;;;;;;;27.07;21.20;;;13.40;99.90;;;;;;5050827;28;20443;-61
2021/09/13 04:37:59;;;;;;;23.73;19.87;;;13.40;99.90;;;;;;5050757;28;20494;-62
2021/09/13 04:40:26;;;;;;;25.23;18.60;;;13.30;99.90;;;;;;5050726;28;20451;-60
2021/09/13 04:42:53;;;;;;;28.23;18.60;;;13.30;99.90;;;;;;5039206;28;20468;-60
2021/09/13 04:45:20;;;;;;;28.03;20.93;;;13.30;99.90;;;;;;5030847;28;20441;-60
2021/09/13 04:47:48;;;;;;;30.30;18.80;;;13.30;99.90;;;;;;5031035;28;20445;-61
2021/09/13 04:50:15;;;;;;;28.57;22.30;;;13.30;99.90;;;;;;5030712;28;20445;-60
2021/09/13 04:52:41;;;;;;;26.30;19.67;;;13.30;99.90;;;;;;5036005;28;20476;-67
2021/09/13 04:55:09;;;;;;;28.10;18.43;;;13.20;99.90;;;;;;5048821;28;20937;-64
2021/09/13 04:57:36;;;;;;;26.63;20.40;;;13.20;99.90;;;;;;5048291;28;20440;-65
2021/09/13 05:00:03;;;;;;;23.90;19.07;;;13.20;99.90;;;;;;5048899;28;20451;-65
2021/09/13 05:02:30;;;;;;;23.73;19.40;;;13.20;99.90;;;;;;5048298;28;20440;-65
2021/09/13 05:04:58;;;;;;;31.97;20.57;;;13.20;99.90;;;;;;5048805;28;20447;-65
2021/09/13 05:07:25;;;;;;;27.70;22.60;;;13.20;99.90;;;;;;5050219;28;20438;-65
2021/09/13 05:09:51;;;;;;;25.37;20.50;;;13.20;99.90;;;;;;5054441;28;20447;-64
2021/09/13 05:12:18;;;;;;;30.63;21.33;;;13.10;99.90;;;;;;5053999;28;20440;-63
2021/09/13 05:14:45;;;;;;;32.40;20.50;;;13.10;99.90;;;;;;5054014;28;20472;-64
2021/09/13 05:17:11;;;;;;;26.30;19.97;;;13.10;99.90;;;;;;5054247;28;20782;-64
2021/09/13 05:19:38;;;;;;;30.97;21.00;;;13.10;99.90;;;;;;5054147;28;20795;-64
2021/09/13 05:22:06;;;;;;;27.27;19.80;;;13.10;99.90;;;;;;5053852;28;20444;-65
2021/09/13 05:24:33;;;;;;;31.93;22.00;;;13.20;99.90;;;;;;5053908;28;20463;-63
2021/09/13 05:27:00;;;;;;;30.30;21.80;;;13.20;99.90;;;;;;5053925;28;20848;-64
2021/09/13 05:29:26;;;;;;;25.50;20.03;;;13.20;99.90;;;;;;5053913;28;20444;-62
2021/09/13 05:31:54;;;;;;;28.67;18.30;;;13.20;99.90;;;;;;5053607;28;20440;-64
2021/09/13 05:34:21;;;;;;;26.20;19.17;;;13.30;99.90;;;;;;5053695;28;20483;-63
2021/09/13 05:36:47;;;;;;;30.93;18.67;;;13.30;99.90;;;;;;5053599;28;20440;-63
2021/09/13 05:39:15;;;;;;;28.57;18.90;;;13.30;99.90;;;;;;5053594;28;20471;-65
2021/09/13 05:41:42;;;;;;;30.10;22.63;;;13.40;99.90;;;;;;5053412;28;20468;-64
2021/09/13 05:44:09;;;;;;;29.13;20.27;;;13.40;99.90;;;;;;5053589;28;20466;-65
2021/09/13 05:46:35;;;;;;;29.40;21.83;;;13.60;99.90;;;;;;5053657;28;20816;-65
2021/09/13 05:49:04;;;;;;;29.37;19.20;;;13.60;99.90;;;;;;5053456;28;20444;-64
2021/09/13 05:51:31;;;;;;;30.20;18.97;;;13.70;99.90;;;;;;5053419;28;20949;-65
2021/09/13 05:53:57;;;;;;;38.27;20.97;;;13.80;99.90;;;;;;5053170;28;20491;-63
2021/09/13 05:56:25;;;;;;;33.47;19.70;;;13.80;99.90;;;;;;5053358;28;20452;-64
2021/09/13 05:58:52;;;;;;;26.87;20.00;;;13.90;99.90;;;;;;5053575;28;20748;-64
2021/09/13 06:01:19;;;;;;;23.53;18.50;;;14.00;99.90;;;;;;5053145;28;20952;-64
2021/09/13 06:03:45;;;;;;;25.30;19.17;;;14.10;99.90;;;;;;5053165;28;20491;-63
2021/09/13 06:06:12;;;;;;;29.03;19.67;;;14.20;99.90;;;;;;5053183;28;20448;-63
2021/09/13 06:08:39;;;;;;;24.10;17.97;;;14.30;99.90;;;;;;5053139;28;20957;-64
2021/09/13 06:11:06;;;;;;;25.67;19.23;;;14.40;99.90;;;;;;5052904;28;20455;-64
2021/09/13 06:13:34;;;;;;;23.13;17.90;;;14.40;99.90;;;;;;5052635;28;20492;-64
2021/09/13 06:16:01;;;;;;;21.30;17.67;;;14.50;99.90;;;;;;5053098;28;20448;-63
2021/09/13 06:18:27;;;;;;;20.87;16.50;;;14.60;99.90;;;;;;5052655;28;20513;-64
2021/09/13 06:20:54;;;;;;;23.33;18.47;;;14.70;99.90;;;;;;5052697;28;20455;-64
2021/09/13 06:23:21;;;;;;;21.87;18.07;;;14.70;99.90;;;;;;5052685;28;20831;-63
2021/09/13 06:25:47;;;;;;;21.80;18.30;;;14.80;99.90;;;;;;5052852;28;20447;-65
2021/09/13 06:28:14;;;;;;;24.00;19.37;;;14.90;99.90;;;;;;5052704;28;20444;-63
2021/09/13 06:30:43;;;;;;;24.77;20.70;;;15.00;99.90;;;;;;5052667;28;20441;-64
2021/09/13 06:33:10;;;;;;;22.67;20.10;;;15.00;99.90;;;;;;5052318;28;21051;-64
2021/09/13 06:35:36;;;;;;;21.07;18.00;;;15.10;99.90;;;;;;5052534;28;20954;-64
2021/09/13 06:38:03;;;;;;;20.93;18.70;;;15.10;99.90;;;;;;5052754;28;20849;-63
2021/09/13 06:40:30;;;;;;;19.10;16.10;;;15.20;99.90;;;;;;5052610;28;20884;-64
2021/09/13 06:42:57;;;;;;;20.20;18.17;;;15.30;99.90;;;;;;5052210;28;20457;-65
2021/09/13 06:45:23;;;;;;;19.00;17.20;;;15.40;99.90;;;;;;5052423;28;20448;-63
2021/09/13 06:47:52;;;;;;;24.17;19.27;;;15.50;99.90;;;;;;5052458;28;20440;-63
2021/09/13 06:50:21;;;;;;;17.67;15.77;;;15.60;99.90;;;;;;5052259;28;20441;-63
2021/09/13 06:52:49;;;;;;;21.17;16.83;;;15.70;99.90;;;;;;5051877;28;20471;-63
2021/09/13 06:55:16;;;;;;;16.27;14.67;;;15.80;99.90;;;;;;5052135;28;20456;-64
2021/09/13 06:57:43;;;;;;;17.07;15.40;;;15.90;99.90;;;;;;5052309;28;20481;-62
2021/09/13 07:00:13;;;;;;;15.40;13.80;;;16.10;99.90;;;;;;5052143;28;20447;-61
2021/09/13 07:02:41;;;;;;;22.43;15.97;;;16.20;99.90;;;;;;5051769;28;20444;-65
2021/09/13 07:05:10;;;;;;;16.90;15.17;;;16.30;99.90;;;;;;5052197;28;20444;-64
2021/09/13 07:07:37;;;;;;;19.20;17.20;;;16.40;99.90;;;;;;5051837;28;20452;-64
2021/09/13 07:10:07;;;;;;;17.50;15.87;;;16.50;99.90;;;;;;5051972;28;20456;-64
2021/09/13 07:12:35;;;;;;;18.70;16.80;;;16.60;99.90;;;;;;5051529;28;20444;-65
2021/09/13 07:15:02;;;;;;;18.20;15.97;;;16.70;99.90;;;;;;5052008;28;20486;-62
2021/09/13 07:17:29;;;;;;;19.20;17.20;;;16.90;99.90;;;;;;5051846;28;20448;-64
2021/09/13 07:19:55;;;;;;;19.00;17.00;;;16.90;99.90;;;;;;5051689;28;20444;-64
2021/09/13 07:22:23;;;;;;;19.80;17.67;;;17.00;99.90;;;;;;5051507;28;20439;-63
2021/09/13 07:24:50;;;;;;;18.50;16.73;;;17.00;99.90;;;;;;5051644;28;20464;-65
2021/09/13 07:27:17;;;;;;;18.80;17.10;;;17.10;99.90;;;;;;5051799;28;20937;-64
2021/09/13 07:29:44;;;;;;;20.80;18.80;;;17.20;99.90;;;;;;5051219;28;20447;-63
2021/09/13 07:32:10;;;;;;;21.77;19.60;;;17.30;99.90;;;;;;5051399;28;20444;-65
2021/09/13 07:34:37;;;;;;;24.73;21.40;;;17.40;99.90;;;;;;5051343;28;20484;-65
2021/09/13 07:37:04;;;;;;;22.53;19.03;;;17.30;99.90;;;;;;5051664;28;20440;-62
2021/09/13 07:39:32;;;;;;;20.50;18.50;;;17.40;99.90;;;;;;5051552;28;20451;-64
2021/09/13 07:42:00;;;;;;;21.13;19.20;;;17.40;99.90;;;;;;5051401;28;20448;-64
2021/09/13 07:44:27;;;;;;;23.30;20.90;;;17.40;99.90;;;;;;5051427;28;20914;-62
2021/09/13 07:46:53;;;;;;;23.33;21.20;;;17.50;99.90;;;;;;5051462;28;20523;-64
2021/09/13 07:49:21;;;;;;;23.27;21.07;;;17.60;99.90;;;;;;5051238;28;20448;-63
2021/09/13 07:51:47;;;;;;;27.60;24.87;;;17.60;99.90;;;;;;5051411;28;20448;-65
2021/09/13 07:54:14;;;;;;;25.70;23.00;;;17.60;99.90;;;;;;5051242;28;20538;-64
2021/09/13 07:56:43;;;;;;;25.57;23.17;;;17.70;99.90;;;;;;5051485;28;20543;-64
2021/09/13 07:59:09;;;;;;;27.10;22.97;;;17.70;99.90;;;;;;5051385;28;20440;-64
2021/09/13 08:01:36;;;;;;;22.13;20.17;;;17.70;99.90;;;;;;5051264;28;20455;-65
2021/09/13 08:04:03;;;;;;;26.10;23.77;;;17.80;99.90;;;;;;5051148;28;20464;-64
2021/09/13 08:06:30;;;;;;;24.67;22.37;;;17.80;99.90;;;;;;5051453;28;20446;-65
2021/09/13 08:08:56;;;;;;;25.40;23.00;;;17.80;99.90;;;;;;5051230;28;20528;-66
2021/09/13 08:11:23;;;;;;;25.57;23.20;;;17.80;99.90;;;;;;5051120;28;20538;-64
2021/09/13 08:13:51;;;;;;;25.50;23.20;;;17.90;99.90;;;;;;5050961;28;20492;-64
2021/09/13 08:16:18;;;;;;;26.43;23.97;;;18.00;99.90;;;;;;5051325;28;20635;-64
2021/09/13 08:18:45;;;;;;;27.30;24.67;;;17.90;99.90;;;;;;5051125;28;20448;-66
2021/09/13 08:21:11;;;;;;;28.10;25.60;;;18.10;99.90;;;;;;5051019;28;20539;-65
2021/09/13 08:23:38;;;;;;;26.27;23.70;;;18.10;99.90;;;;;;5050902;28;20468;-64
2021/09/13 08:26:07;;;;;;;27.73;25.07;;;18.20;99.90;;;;;;5051117;28;20491;-65
2021/09/13 08:28:34;;;;;;;29.00;26.00;;;18.30;99.90;;;;;;5050981;28;20447;-64
2021/09/13 08:31:03;;;;;;;25.93;23.60;;;18.40;99.90;;;;;;5050879;28;20444;-65
2021/09/13 08:33:30;;;;;;;29.90;27.07;;;18.50;99.90;;;;;;5050850;28;20833;-65
2021/09/13 08:35:57;;;;;;;27.40;25.27;;;18.60;99.90;;;;;;5051050;28;20455;-65
2021/09/13 08:38:24;;;;;;;28.47;25.87;;;18.80;99.90;;;;;;5051113;28;20960;-66
2021/09/13 08:40:53;;;;;;;27.53;24.97;;;18.80;99.90;;;;;;5051062;28;20443;-64
2021/09/13 08:43:21;;;;;;;28.97;26.43;;;19.00;99.90;;;;;;5054541;28;20467;-64
2021/09/13 08:45:52;;;;;;;28.53;26.20;;;19.20;99.90;;;;;;5054749;28;20447;-64
2021/09/13 08:48:24;;;;;;;29.27;26.80;;;19.40;99.90;;;;;;5054606;28;20448;-64
2021/09/13 08:51:05;;;;;;;29.87;27.07;;;19.50;99.90;;;;;;5054677;28;20815;-63
2021/09/13 08:53:36;;;;;;;26.57;24.47;;;19.60;99.90;;;;;;5054350;28;20503;-64
2021/09/13 08:56:04;;;;;;;27.70;25.47;;;19.70;99.90;;;;;;5054513;28;20451;-65
2021/09/13 08:58:33;;;;;;;32.37;29.27;;;19.70;99.90;;;;;;5054522;28;20499;-65
2021/09/13 09:01:01;;;;;;;29.37;27.07;;;19.90;99.90;;;;;;5054308;28;20436;-65
2021/09/13 09:03:29;;;;;;;28.97;26.60;;;20.20;99.90;;;;;;5054320;28;20471;-61
2021/09/13 09:05:56;;;;;;;30.00;27.50;;;20.30;99.90;;;;;;5054404;28;20444;-64
2021/09/13 09:08:27;;;;;;;30.93;28.33;;;20.50;99.90;;;;;;5054420;28;20447;-64
2021/09/13 09:10:56;;;;;;;29.90;27.40;;;20.60;99.90;;;;;;5054212;28;20447;-64
2021/09/13 09:13:24;;;;;;;31.37;28.50;;;20.70;99.90;;;;;;5053955;28;20486;-64
2021/09/13 09:15:56;;;;;;;30.60;28.10;;;20.90;99.90;;;;;;5054277;28;20856;-63
2021/09/13 09:18:23;;;;;;;33.63;30.83;;;20.80;99.90;;;;;;5054026;28;20467;-65
2021/09/13 09:20:52;;;;;;;31.67;29.07;;;20.90;99.90;;;;;;5054081;28;20476;-64
2021/09/13 09:23:19;;;;;;;30.70;28.20;;;20.80;99.90;;;;;;5053946;28;20814;-64
2021/09/13 09:25:47;;;;;;;29.77;27.50;;;21.00;99.90;;;;;;5054190;28;20796;-64
2021/09/13 09:28:16;;;;;;;31.53;28.73;;;21.20;99.90;;;;;;5053893;28;20455;-64
2021/09/13 09:30:44;;;;;;;32.00;29.30;;;21.20;99.90;;;;;;5053997;28;20470;-65
2021/09/13 09:33:13;;;;;;;31.67;29.13;;;21.20;99.90;;;;;;5053600;28;21008;-65
2021/09/13 09:35:43;;;;;;;30.70;28.37;;;21.60;99.90;;;;;;5053687;28;20822;-64
2021/09/13 09:38:27;;;;;;;29.53;27.37;;;21.60;99.90;;;;;;5053756;28;20956;-65
2021/09/13 09:41:00;;;;;;;29.50;27.10;;;21.80;99.90;;;;;;5053554;28;20444;-64
2021/09/13 09:43:27;;;;;;;29.33;27.17;;;21.90;99.90;;;;;;5053613;28;20517;-68
2021/09/13 09:45:54;;;;;;;32.20;29.80;;;21.90;99.90;;;;;;5038290;28;20810;-65
2021/09/13 09:48:29;;;;;;;28.60;26.60;;;21.90;99.90;;;;;;5032702;28;20817;-64
2021/09/13 09:50:56;;;;;;;25.70;24.00;;;21.80;99.90;;;;;;5033313;28;20802;-64
2021/09/13 09:53:29;;;;;;;28.70;26.67;;;22.00;99.90;;;;;;5032407;28;20461;-64
2021/09/13 09:56:11;;;;;;;25.90;24.40;;;22.40;99.90;;;;;;5047036;28;21001;-63
2021/09/13 09:58:59;;;;;;;32.27;29.70;;;22.60;99.90;;;;;;5053244;28;20444;-61
2021/09/13 10:01:40;;;;;;;31.40;29.10;;;22.80;99.90;;;;;;5053371;28;20440;-63
2021/09/13 10:04:19;;;;;;;31.23;28.93;;;22.70;99.90;;;;;;5051223;28;20471;-63
2021/09/13 10:06:48;;;;;;;27.90;26.00;;;22.60;99.90;;;;;;5033434;28;20483;-63
2021/09/13 10:09:17;;;;;;;25.30;23.57;;;22.70;99.90;;;;;;5033165;28;20437;-64
2021/09/13 10:11:45;;;;;;;24.30;22.80;;;22.80;99.90;;;;;;5032657;28;20449;-60
2021/09/13 10:14:14;;;;;;;25.03;23.47;;;22.90;99.90;;;;;;5035285;28;20492;-63
2021/09/13 10:16:43;;;;;;;23.67;22.07;;;23.10;99.90;;;;;;5041191;28;20456;-65
2021/09/13 10:19:11;;;;;;;22.90;21.50;;;23.10;99.90;;;;;;5053011;28;20852;-63
2021/09/13 10:21:37;;;;;;;22.80;21.60;;;23.20;99.90;;;;;;5052568;28;20475;-64
2021/09/13 10:24:09;;;;;;;22.90;21.60;;;23.40;99.90;;;;;;5052819;28;20490;-61
2021/09/13 10:26:40;;;;;;;26.50;24.93;;;23.30;99.70;;;;;;5052765;28;20448;-64
2021/09/13 10:29:20;;;;;;;25.33;23.77;;;23.00;99.80;;;;;;5052956;28;20444;-62
2021/09/13 10:32:11;;;;;;;23.83;22.53;;;23.20;98.20;;;;;;5052663;28;20440;-62
2021/09/13 10:34:50;;;;;;;24.47;23.07;;;23.30;96.10;;;;;;5052540;28;20510;-63
2021/09/13 10:37:18;;;;;;;21.30;20.30;;;23.40;96.30;;;;;;5052606;28;20532;-62
2021/09/13 10:39:56;;;;;;;21.77;20.60;;;23.90;94.90;;;;;;5052613;28;20452;-63
2021/09/13 10:42:42;;;;;;;23.10;21.80;;;24.10;93.60;;;;;;5052342;28;20448;-62
2021/09/13 10:45:11;;;;;;;21.20;20.13;;;24.20;91.50;;;;;;5052485;28;20436;-64
2021/09/13 10:47:39;;;;;;;23.43;22.33;;;24.50;93.00;;;;;;5052473;28;20451;-63
2021/09/13 10:50:21;;;;;;;23.30;22.20;;;24.90;93.50;;;;;;5052367;28;20942;-63
2021/09/13 10:52:50;;;;;;;23.73;22.53;;;25.30;90.10;;;;;;5052051;28;20590;-63
2021/09/13 10:55:27;;;;;;;22.77;21.57;;;25.50;86.40;;;;;;5052191;28;20484;-63
2021/09/13 10:58:01;;;;;;;22.73;21.73;;;26.00;84.40;;;;;;5052250;28;20448;-63
2021/09/13 11:01:03;;;;;;;22.83;21.80;;;26.10;80.80;;;;;;5052149;28;20929;-63
2021/09/13 11:03:36;;;;;;;23.00;22.00;;;26.30;80.70;;;;;;5051979;28;20503;-63
2021/09/13 11:06:18;;;;;;;22.60;21.60;;;26.80;81.60;;;;;;5051410;28;20440;-63
2021/09/13 11:08:46;;;;;;;24.00;22.73;;;27.00;78.70;;;;;;5039329;28;20455;-63
2021/09/13 11:11:14;;;;;;;25.60;24.00;;;27.30;71.20;;;;;;5051757;28;20451;-65
2021/09/13 11:13:44;;;;;;;24.63;23.53;;;27.80;66.90;;;;;;5051658;28;20491;-64
2021/09/13 11:16:11;;;;;;;24.00;22.77;;;28.30;64.20;;;;;;5051731;28;20475;-63
2021/09/13 11:18:41;;;;;;;26.80;25.50;;;28.20;62.10;;;;;;5052005;28;20448;-64
2021/09/13 11:21:19;;;;;;;25.00;23.83;;;28.40;58.80;;;;;;5051686;28;20960;-63
2021/09/13 11:23:46;;;;;;;24.30;23.10;;;29.00;57.60;;;;;;5051765;28;20467;-64
2021/09/13 11:26:15;;;;;;;24.67;23.47;;;29.00;56.20;;;;;;5051779;28;20451;-63
2021/09/13 11:28:57;;;;;;;26.20;24.93;;;29.40;55.90;;;;;;5051614;28;20791;-65
2021/09/13 11:31:34;;;;;;;26.57;25.37;;;30.10;53.10;;;;;;5051587;28;20451;-62
2021/09/13 11:34:02;;;;;;;25.80;24.50;;;31.20;51.80;;;;;;5051593;28;20833;-65
2021/09/13 11:36:31;;;;;;;25.50;24.40;;;32.80;49.00;;;;;;5051549;28;20510;-65
2021/09/13 11:38:59;;;;;;;26.03;24.83;;;33.20;45.70;;;;;;5051580;28;20444;-63
2021/09/13 11:41:27;;;;;;;25.70;24.50;;;33.20;43.50;;;;;;5051398;28;20448;-63
2021/09/13 11:44:07;;;;;;;24.47;23.37;;;34.70;42.20;;;;;;5051412;28;20464;-63
2021/09/13 11:46:51;;;;;;;26.20;24.90;;;35.10;40.00;;;;;;5051422;28;20208;-63
2021/09/13 11:49:19;;;;;;;26.48;25.27;;;36.30;37.40;;;;;;5051770;28;20204;-64
2021/09/13 11:52:10;;;;;;;26.13;25.02;;;37.50;36.60;;;;;;5051165;28;20686;-64
2021/09/13 11:54:48;;;;;;;25.50;24.40;;;37.40;35.60;;;;;;5051176;28;20225;-61
2021/09/13 11:57:35;;;;;;;24.95;23.75;;;39.10;33.70;;;;;;5051367;28;20208;-62
2021/09/13 12:00:10;;;;;;;26.63;25.33;;;39.00;32.60;;;;;;5051478;28;20563;-61
2021/09/13 12:02:38;;;;;;;25.10;24.00;;;38.30;32.60;;;;;;5050967;28;20212;-62
2021/09/13 12:05:10;;;;;;;26.65;25.45;;;36.80;33.10;;;;;;5051418;28;20201;-62
2021/09/13 12:07:37;;;;;;;26.27;25.17;;;36.60;34.80;;;;;;5051267;28;20204;-61
2021/09/13 12:10:05;;;;;;;25.55;24.45;;;38.40;33.10;;;;;;5051310;28;20212;-63
2021/09/13 12:12:32;;;;;;;26.55;25.38;;;39.10;31.40;;;;;;5050792;28;20201;-63
2021/09/13 12:15:05;;;;;;;25.95;24.83;;;40.10;31.90;;;;;;5051172;28;20702;-62
2021/09/13 12:17:40;;;;;;;27.80;26.60;;;41.20;30.00;;;;;;5053915;28;20212;-60
2021/09/13 12:20:13;;;;;;;26.50;25.40;;;42.10;28.60;;;;;;5055149;28;20590;-61
2021/09/13 12:22:40;;;;;;;27.27;26.05;;;42.70;28.50;;;;;;5054812;28;20224;-62
2021/09/13 12:25:12;;;;;;;27.63;26.42;;;43.30;27.70;;;;;;5055172;28;20236;-63
2021/09/13 12:27:43;;;;;;;26.70;25.60;;;43.20;27.10;;;;;;5054931;28;20209;-61
2021/09/13 12:30:20;;;;;;;26.70;25.58;;;41.90;27.50;;;;;;5055226;28;20208;-61
2021/09/13 12:32:57;;;;;;;26.65;25.55;;;43.60;27.20;;;;;;5054698;28;20204;-62
2021/09/13 12:35:41;;;;;;;25.23;24.10;;;44.40;26.30;;;;;;5054845;28;20224;-61